sensor_id;sensor_type;location;lat;lon;timestamp;P1;durP1;ratioP1;P2;durP2;ratioP2
9799;SDS011;4939;52.00085300;4.17406100;2023-03-14T00:00:23;9.00;;;1.48;;
9799;SDS011;4939;52.00085300;4.17406100;2023-03-14T00:02:53;12.65;;;1.52;;
9799;SDS011;4939;52.00085300;4.17406100;2023-03-14T00:05:19;9.95;;;1.20;;
9799;SDS011;4939;52.00085300;4.17406100;2023-03-14T00:07:45;10.00;;;2.03;;
9799;SDS011;4939;52.00085300;4.17406100;2023-03-14T00:10:12;16.92;;;2.10;;
9799;SDS011;4939;52.00085300;4.17406100;2023-03-14T00:12:39;10.05;;;1.40;;
9799;SDS011;4939;52.00085300;4.17406100;2023-03-14T00:15:06;7.55;;;1.20;;
9799;SDS011;4939;52.00085300;4.17406100;2023-03-14T00:17:32;13.05;;;2.28;;
9799;SDS011;4939;52.00085300;4.17406100;2023-03-14T00:19:59;6.72;;;0.98;;
9799;SDS011;4939;52.00085300;4.17406100;2023-03-14T00:22:36;14.27;;;2.47;;
9799;SDS011;4939;52.00085300;4.17406100;2023-03-14T00:25:03;14.35;;;2.17;;
9799;SDS011;4939;52.00085300;4.17406100;2023-03-14T00:27:30;14.75;;;1.40;;
9799;SDS011;4939;52.00085300;4.17406100;2023-03-14T00:29:56;14.63;;;1.48;;
9799;SDS011;4939;52.00085300;4.17406100;2023-03-14T00:32:22;19.25;;;1.40;;
9799;SDS011;4939;52.00085300;4.17406100;2023-03-14T00:34:48;13.73;;;1.70;;
9799;SDS011;4939;52.00085300;4.17406100;2023-03-14T00:37:14;14.70;;;1.63;;
9799;SDS011;4939;52.00085300;4.17406100;2023-03-14T00:39:40;18.80;;;2.20;;
9799;SDS011;4939;52.00085300;4.17406100;2023-03-14T00:42:06;13.52;;;2.00;;
9799;SDS011;4939;52.00085300;4.17406100;2023-03-14T00:44:31;20.30;;;2.55;;
9799;SDS011;4939;52.00085300;4.17406100;2023-03-14T00:46:57;21.88;;;2.33;;
9799;SDS011;4939;52.00085300;4.17406100;2023-03-14T00:49:23;21.23;;;2.20;;
9799;SDS011;4939;52.00085300;4.17406100;2023-03-14T00:51:49;18.77;;;2.17;;
9799;SDS011;4939;52.00085300;4.17406100;2023-03-14T00:54:16;20.65;;;2.60;;
9799;SDS011;4939;52.00085300;4.17406100;2023-03-14T00:56:42;15.90;;;1.75;;
9799;SDS011;4939;52.00085300;4.17406100;2023-03-14T00:59:08;16.13;;;2.17;;
9799;SDS011;4939;52.00085300;4.17406100;2023-03-14T01:01:34;21.20;;;2.25;;
9799;SDS011;4939;52.00085300;4.17406100;2023-03-14T01:04:00;20.17;;;2.25;;
9799;SDS011;4939;52.00085300;4.17406100;2023-03-14T01:06:27;14.05;;;2.58;;
9799;SDS011;4939;52.00085300;4.17406100;2023-03-14T01:08:54;13.20;;;1.77;;
9799;SDS011;4939;52.00085300;4.17406100;2023-03-14T01:11:24;14.48;;;1.85;;
9799;SDS011;4939;52.00085300;4.17406100;2023-03-14T01:13:52;16.70;;;1.85;;
9799;SDS011;4939;52.00085300;4.17406100;2023-03-14T01:16:19;10.43;;;1.17;;
9799;SDS011;4939;52.00085300;4.17406100;2023-03-14T01:18:46;14.27;;;2.28;;
9799;SDS011;4939;52.00085300;4.17406100;2023-03-14T01:21:23;12.90;;;1.42;;
9799;SDS011;4939;52.00085300;4.17406100;2023-03-14T01:23:54;12.95;;;1.67;;
9799;SDS011;4939;52.00085300;4.17406100;2023-03-14T01:26:21;16.33;;;1.52;;
9799;SDS011;4939;52.00085300;4.17406100;2023-03-14T01:28:49;11.73;;;1.33;;
9799;SDS011;4939;52.00085300;4.17406100;2023-03-14T01:31:16;8.80;;;1.33;;
9799;SDS011;4939;52.00085300;4.17406100;2023-03-14T01:33:42;12.32;;;1.92;;
9799;SDS011;4939;52.00085300;4.17406100;2023-03-14T01:36:08;10.38;;;1.55;;
9799;SDS011;4939;52.00085300;4.17406100;2023-03-14T01:38:35;10.35;;;1.15;;
9799;SDS011;4939;52.00085300;4.17406100;2023-03-14T01:41:02;9.63;;;1.23;;
9799;SDS011;4939;52.00085300;4.17406100;2023-03-14T01:43:29;12.10;;;1.70;;
9799;SDS011;4939;52.00085300;4.17406100;2023-03-14T01:53:54;9.93;;;1.27;;
9799;SDS011;4939;52.00085300;4.17406100;2023-03-14T01:56:31;11.27;;;1.80;;
9799;SDS011;4939;52.00085300;4.17406100;2023-03-14T01:58:57;10.13;;;1.50;;
9799;SDS011;4939;52.00085300;4.17406100;2023-03-14T02:01:24;8.93;;;1.10;;
9799;SDS011;4939;52.00085300;4.17406100;2023-03-14T02:03:55;10.00;;;1.23;;
9799;SDS011;4939;52.00085300;4.17406100;2023-03-14T02:06:26;11.10;;;1.30;;
9799;SDS011;4939;52.00085300;4.17406100;2023-03-14T02:08:58;6.03;;;0.98;;
9799;SDS011;4939;52.00085300;4.17406100;2023-03-14T02:11:26;11.20;;;1.50;;
9799;SDS011;4939;52.00085300;4.17406100;2023-03-14T02:13:54;10.70;;;1.45;;
9799;SDS011;4939;52.00085300;4.17406100;2023-03-14T02:16:21;10.23;;;1.58;;
9799;SDS011;4939;52.00085300;4.17406100;2023-03-14T02:18:47;14.07;;;1.95;;
9799;SDS011;4939;52.00085300;4.17406100;2023-03-14T02:21:57;6.93;;;1.30;;
9799;SDS011;4939;52.00085300;4.17406100;2023-03-14T02:27:32;8.50;;;1.25;;
9799;SDS011;4939;52.00085300;4.17406100;2023-03-14T02:30:04;7.57;;;1.00;;
9799;SDS011;4939;52.00085300;4.17406100;2023-03-14T02:32:33;7.93;;;1.23;;
9799;SDS011;4939;52.00085300;4.17406100;2023-03-14T02:35:02;7.65;;;1.27;;
9799;SDS011;4939;52.00085300;4.17406100;2023-03-14T02:37:33;12.27;;;1.33;;
9799;SDS011;4939;52.00085300;4.17406100;2023-03-14T02:40:03;8.88;;;1.30;;
9799;SDS011;4939;52.00085300;4.17406100;2023-03-14T02:42:30;9.10;;;1.38;;
9799;SDS011;4939;52.00085300;4.17406100;2023-03-14T02:47:33;8.85;;;1.25;;
9799;SDS011;4939;52.00085300;4.17406100;2023-03-14T02:50:01;6.82;;;1.27;;
9799;SDS011;4939;52.00085300;4.17406100;2023-03-14T02:52:33;9.98;;;1.80;;
9799;SDS011;4939;52.00085300;4.17406100;2023-03-14T02:54:59;11.05;;;1.77;;
9799;SDS011;4939;52.00085300;4.17406100;2023-03-14T02:57:24;7.85;;;1.30;;
9799;SDS011;4939;52.00085300;4.17406100;2023-03-14T02:59:50;12.48;;;2.20;;
9799;SDS011;4939;52.00085300;4.17406100;2023-03-14T03:02:16;11.07;;;1.80;;
9799;SDS011;4939;52.00085300;4.17406100;2023-03-14T03:04:48;10.00;;;1.98;;
9799;SDS011;4939;52.00085300;4.17406100;2023-03-14T03:07:27;8.18;;;1.23;;
9799;SDS011;4939;52.00085300;4.17406100;2023-03-14T03:09:59;6.75;;;1.33;;
9799;SDS011;4939;52.00085300;4.17406100;2023-03-14T03:12:25;8.65;;;1.65;;
9799;SDS011;4939;52.00085300;4.17406100;2023-03-14T03:14:51;13.10;;;2.30;;
9799;SDS011;4939;52.00085300;4.17406100;2023-03-14T03:17:16;9.35;;;2.22;;
9799;SDS011;4939;52.00085300;4.17406100;2023-03-14T03:19:42;6.78;;;1.88;;
9799;SDS011;4939;52.00085300;4.17406100;2023-03-14T03:22:08;9.50;;;2.00;;
9799;SDS011;4939;52.00085300;4.17406100;2023-03-14T03:24:34;12.48;;;2.38;;
9799;SDS011;4939;52.00085300;4.17406100;2023-03-14T03:26:59;10.00;;;2.22;;
9799;SDS011;4939;52.00085300;4.17406100;2023-03-14T03:29:25;10.80;;;1.80;;
9799;SDS011;4939;52.00085300;4.17406100;2023-03-14T03:31:51;8.85;;;2.20;;
9799;SDS011;4939;52.00085300;4.17406100;2023-03-14T03:34:17;9.30;;;1.80;;
9799;SDS011;4939;52.00085300;4.17406100;2023-03-14T03:36:42;10.38;;;2.50;;
9799;SDS011;4939;52.00085300;4.17406100;2023-03-14T03:39:08;11.55;;;1.88;;
9799;SDS011;4939;52.00085300;4.17406100;2023-03-14T03:41:34;9.45;;;2.00;;
9799;SDS011;4939;52.00085300;4.17406100;2023-03-14T03:43:59;10.65;;;2.25;;
9799;SDS011;4939;52.00085300;4.17406100;2023-03-14T03:46:25;10.93;;;2.67;;
9799;SDS011;4939;52.00085300;4.17406100;2023-03-14T03:48:55;11.65;;;2.28;;
9799;SDS011;4939;52.00085300;4.17406100;2023-03-14T03:51:21;11.60;;;1.98;;
9799;SDS011;4939;52.00085300;4.17406100;2023-03-14T03:53:47;5.47;;;1.40;;
9799;SDS011;4939;52.00085300;4.17406100;2023-03-14T03:56:12;11.13;;;2.03;;
9799;SDS011;4939;52.00085300;4.17406100;2023-03-14T03:58:38;5.70;;;1.23;;
9799;SDS011;4939;52.00085300;4.17406100;2023-03-14T04:01:05;8.35;;;1.70;;
9799;SDS011;4939;52.00085300;4.17406100;2023-03-14T04:03:32;6.40;;;1.63;;
9799;SDS011;4939;52.00085300;4.17406100;2023-03-14T04:06:02;10.88;;;1.80;;
9799;SDS011;4939;52.00085300;4.17406100;2023-03-14T04:08:33;9.05;;;1.80;;
9799;SDS011;4939;52.00085300;4.17406100;2023-03-14T04:10:59;5.82;;;1.30;;
9799;SDS011;4939;52.00085300;4.17406100;2023-03-14T04:13:26;9.02;;;2.10;;
9799;SDS011;4939;52.00085300;4.17406100;2023-03-14T04:15:52;9.88;;;2.00;;
9799;SDS011;4939;52.00085300;4.17406100;2023-03-14T04:18:19;8.38;;;1.77;;
9799;SDS011;4939;52.00085300;4.17406100;2023-03-14T04:20:45;7.40;;;1.60;;
9799;SDS011;4939;52.00085300;4.17406100;2023-03-14T04:23:15;12.70;;;1.85;;
9799;SDS011;4939;52.00085300;4.17406100;2023-03-14T04:25:41;10.95;;;1.73;;
9799;SDS011;4939;52.00085300;4.17406100;2023-03-14T04:28:06;13.73;;;2.50;;
9799;SDS011;4939;52.00085300;4.17406100;2023-03-14T04:30:32;9.77;;;2.00;;
9799;SDS011;4939;52.00085300;4.17406100;2023-03-14T04:32:58;9.70;;;2.28;;
9799;SDS011;4939;52.00085300;4.17406100;2023-03-14T04:35:24;9.70;;;2.20;;
9799;SDS011;4939;52.00085300;4.17406100;2023-03-14T04:37:50;7.90;;;1.80;;
9799;SDS011;4939;52.00085300;4.17406100;2023-03-14T04:40:17;5.28;;;1.83;;
9799;SDS011;4939;52.00085300;4.17406100;2023-03-14T04:42:43;9.45;;;2.05;;
9799;SDS011;4939;52.00085300;4.17406100;2023-03-14T04:45:08;8.05;;;2.42;;
9799;SDS011;4939;52.00085300;4.17406100;2023-03-14T04:47:34;15.60;;;2.42;;
9799;SDS011;4939;52.00085300;4.17406100;2023-03-14T04:50:00;8.43;;;2.30;;
9799;SDS011;4939;52.00085300;4.17406100;2023-03-14T04:52:26;10.18;;;1.95;;
9799;SDS011;4939;52.00085300;4.17406100;2023-03-14T04:54:52;9.35;;;1.58;;
9799;SDS011;4939;52.00085300;4.17406100;2023-03-14T04:57:18;11.82;;;1.90;;
9799;SDS011;4939;52.00085300;4.17406100;2023-03-14T04:59:43;11.60;;;2.30;;
9799;SDS011;4939;52.00085300;4.17406100;2023-03-14T05:02:09;7.45;;;2.28;;
9799;SDS011;4939;52.00085300;4.17406100;2023-03-14T05:04:35;7.43;;;1.60;;
9799;SDS011;4939;52.00085300;4.17406100;2023-03-14T05:07:01;12.35;;;1.73;;
9799;SDS011;4939;52.00085300;4.17406100;2023-03-14T05:09:27;7.85;;;1.38;;
9799;SDS011;4939;52.00085300;4.17406100;2023-03-14T05:11:52;9.52;;;1.48;;
9799;SDS011;4939;52.00085300;4.17406100;2023-03-14T05:14:18;10.57;;;1.70;;
9799;SDS011;4939;52.00085300;4.17406100;2023-03-14T05:16:44;8.25;;;1.70;;
9799;SDS011;4939;52.00085300;4.17406100;2023-03-14T05:19:10;16.15;;;1.95;;
9799;SDS011;4939;52.00085300;4.17406100;2023-03-14T05:21:36;12.55;;;1.58;;
9799;SDS011;4939;52.00085300;4.17406100;2023-03-14T05:24:02;8.50;;;1.20;;
9799;SDS011;4939;52.00085300;4.17406100;2023-03-14T05:26:28;20.38;;;2.90;;
9799;SDS011;4939;52.00085300;4.17406100;2023-03-14T05:28:54;10.15;;;1.55;;
9799;SDS011;4939;52.00085300;4.17406100;2023-03-14T05:31:20;11.48;;;1.77;;
9799;SDS011;4939;52.00085300;4.17406100;2023-03-14T05:33:45;10.73;;;1.80;;
9799;SDS011;4939;52.00085300;4.17406100;2023-03-14T05:36:11;9.10;;;1.10;;
9799;SDS011;4939;52.00085300;4.17406100;2023-03-14T05:38:37;10.35;;;1.35;;
9799;SDS011;4939;52.00085300;4.17406100;2023-03-14T05:41:03;13.48;;;2.25;;
9799;SDS011;4939;52.00085300;4.17406100;2023-03-14T05:43:29;11.98;;;1.90;;
9799;SDS011;4939;52.00085300;4.17406100;2023-03-14T05:45:54;14.27;;;1.27;;
9799;SDS011;4939;52.00085300;4.17406100;2023-03-14T05:48:20;12.45;;;0.85;;
9799;SDS011;4939;52.00085300;4.17406100;2023-03-14T05:50:47;5.97;;;1.00;;
9799;SDS011;4939;52.00085300;4.17406100;2023-03-14T05:53:13;4.60;;;1.08;;
9799;SDS011;4939;52.00085300;4.17406100;2023-03-14T05:55:39;5.78;;;1.20;;
9799;SDS011;4939;52.00085300;4.17406100;2023-03-14T05:58:05;7.22;;;0.85;;
9799;SDS011;4939;52.00085300;4.17406100;2023-03-14T06:00:31;12.25;;;0.95;;
9799;SDS011;4939;52.00085300;4.17406100;2023-03-14T06:02:57;10.38;;;1.00;;
9799;SDS011;4939;52.00085300;4.17406100;2023-03-14T06:05:23;9.45;;;0.88;;
9799;SDS011;4939;52.00085300;4.17406100;2023-03-14T06:07:48;5.82;;;0.40;;
9799;SDS011;4939;52.00085300;4.17406100;2023-03-14T06:10:14;9.05;;;1.70;;
9799;SDS011;4939;52.00085300;4.17406100;2023-03-14T06:12:40;5.90;;;0.82;;
9799;SDS011;4939;52.00085300;4.17406100;2023-03-14T06:15:06;11.90;;;1.75;;
9799;SDS011;4939;52.00085300;4.17406100;2023-03-14T06:17:32;9.02;;;1.45;;
9799;SDS011;4939;52.00085300;4.17406100;2023-03-14T06:19:58;7.03;;;0.88;;
9799;SDS011;4939;52.00085300;4.17406100;2023-03-14T06:22:24;7.22;;;0.70;;
9799;SDS011;4939;52.00085300;4.17406100;2023-03-14T06:24:50;8.02;;;0.93;;
9799;SDS011;4939;52.00085300;4.17406100;2023-03-14T06:27:15;10.35;;;1.42;;
9799;SDS011;4939;52.00085300;4.17406100;2023-03-14T06:29:41;15.95;;;1.27;;
9799;SDS011;4939;52.00085300;4.17406100;2023-03-14T06:32:07;4.72;;;1.02;;
9799;SDS011;4939;52.00085300;4.17406100;2023-03-14T06:34:32;7.90;;;0.85;;
9799;SDS011;4939;52.00085300;4.17406100;2023-03-14T06:36:58;5.72;;;0.82;;
9799;SDS011;4939;52.00085300;4.17406100;2023-03-14T06:39:24;9.13;;;1.10;;
9799;SDS011;4939;52.00085300;4.17406100;2023-03-14T06:41:50;8.02;;;0.90;;
9799;SDS011;4939;52.00085300;4.17406100;2023-03-14T06:44:15;9.20;;;0.68;;
9799;SDS011;4939;52.00085300;4.17406100;2023-03-14T06:46:41;5.72;;;0.57;;
9799;SDS011;4939;52.00085300;4.17406100;2023-03-14T06:49:06;4.47;;;0.65;;
9799;SDS011;4939;52.00085300;4.17406100;2023-03-14T06:51:32;5.43;;;0.80;;
9799;SDS011;4939;52.00085300;4.17406100;2023-03-14T06:53:59;12.25;;;1.30;;
9799;SDS011;4939;52.00085300;4.17406100;2023-03-14T06:56:24;3.10;;;0.50;;
9799;SDS011;4939;52.00085300;4.17406100;2023-03-14T06:58:50;4.93;;;0.75;;
9799;SDS011;4939;52.00085300;4.17406100;2023-03-14T07:03:49;5.43;;;0.70;;
9799;SDS011;4939;52.00085300;4.17406100;2023-03-14T07:06:15;7.35;;;0.73;;
9799;SDS011;4939;52.00085300;4.17406100;2023-03-14T07:08:40;3.78;;;0.45;;
9799;SDS011;4939;52.00085300;4.17406100;2023-03-14T07:11:07;5.45;;;0.95;;
9799;SDS011;4939;52.00085300;4.17406100;2023-03-14T07:13:35;5.93;;;0.80;;
9799;SDS011;4939;52.00085300;4.17406100;2023-03-14T07:16:00;9.82;;;0.70;;
9799;SDS011;4939;52.00085300;4.17406100;2023-03-14T07:18:26;3.75;;;0.57;;
9799;SDS011;4939;52.00085300;4.17406100;2023-03-14T07:20:52;7.03;;;1.00;;
9799;SDS011;4939;52.00085300;4.17406100;2023-03-14T07:23:18;8.75;;;0.77;;
9799;SDS011;4939;52.00085300;4.17406100;2023-03-14T07:25:43;9.88;;;1.30;;
9799;SDS011;4939;52.00085300;4.17406100;2023-03-14T07:28:09;10.98;;;1.00;;
9799;SDS011;4939;52.00085300;4.17406100;2023-03-14T07:30:35;14.57;;;1.40;;
9799;SDS011;4939;52.00085300;4.17406100;2023-03-14T07:33:00;12.45;;;1.20;;
9799;SDS011;4939;52.00085300;4.17406100;2023-03-14T07:35:26;13.85;;;1.30;;
9799;SDS011;4939;52.00085300;4.17406100;2023-03-14T07:37:52;8.85;;;1.23;;
9799;SDS011;4939;52.00085300;4.17406100;2023-03-14T07:40:18;9.90;;;1.20;;
9799;SDS011;4939;52.00085300;4.17406100;2023-03-14T07:42:43;7.75;;;1.33;;
9799;SDS011;4939;52.00085300;4.17406100;2023-03-14T07:45:09;10.23;;;0.93;;
9799;SDS011;4939;52.00085300;4.17406100;2023-03-14T07:47:35;8.13;;;1.15;;
9799;SDS011;4939;52.00085300;4.17406100;2023-03-14T07:50:02;15.05;;;1.25;;
9799;SDS011;4939;52.00085300;4.17406100;2023-03-14T07:52:28;10.52;;;1.20;;
9799;SDS011;4939;52.00085300;4.17406100;2023-03-14T07:54:54;7.40;;;0.80;;
9799;SDS011;4939;52.00085300;4.17406100;2023-03-14T07:57:20;14.18;;;1.10;;
9799;SDS011;4939;52.00085300;4.17406100;2023-03-14T07:59:46;5.13;;;0.60;;
9799;SDS011;4939;52.00085300;4.17406100;2023-03-14T08:02:11;5.72;;;0.98;;
9799;SDS011;4939;52.00085300;4.17406100;2023-03-14T08:04:38;5.07;;;0.55;;
9799;SDS011;4939;52.00085300;4.17406100;2023-03-14T08:07:05;5.20;;;0.50;;
9799;SDS011;4939;52.00085300;4.17406100;2023-03-14T08:09:31;7.57;;;0.70;;
9799;SDS011;4939;52.00085300;4.17406100;2023-03-14T08:11:57;4.35;;;0.50;;
9799;SDS011;4939;52.00085300;4.17406100;2023-03-14T08:14:22;8.25;;;1.10;;
9799;SDS011;4939;52.00085300;4.17406100;2023-03-14T08:16:51;4.68;;;0.45;;
9799;SDS011;4939;52.00085300;4.17406100;2023-03-14T08:19:17;4.50;;;0.75;;
9799;SDS011;4939;52.00085300;4.17406100;2023-03-14T08:21:43;5.10;;;0.73;;
9799;SDS011;4939;52.00085300;4.17406100;2023-03-14T08:24:08;6.03;;;0.85;;
9799;SDS011;4939;52.00085300;4.17406100;2023-03-14T08:26:34;12.07;;;0.90;;
9799;SDS011;4939;52.00085300;4.17406100;2023-03-14T08:29:00;10.13;;;0.90;;
9799;SDS011;4939;52.00085300;4.17406100;2023-03-14T08:31:26;5.70;;;1.05;;
9799;SDS011;4939;52.00085300;4.17406100;2023-03-14T08:33:52;5.32;;;0.60;;
9799;SDS011;4939;52.00085300;4.17406100;2023-03-14T08:36:18;8.27;;;0.73;;
9799;SDS011;4939;52.00085300;4.17406100;2023-03-14T08:38:45;4.45;;;0.70;;
9799;SDS011;4939;52.00085300;4.17406100;2023-03-14T08:41:10;7.55;;;1.27;;
9799;SDS011;4939;52.00085300;4.17406100;2023-03-14T08:43:36;5.72;;;0.70;;
9799;SDS011;4939;52.00085300;4.17406100;2023-03-14T08:46:02;5.90;;;1.10;;
9799;SDS011;4939;52.00085300;4.17406100;2023-03-14T08:48:29;10.95;;;0.82;;
9799;SDS011;4939;52.00085300;4.17406100;2023-03-14T08:51:13;8.38;;;0.88;;
9799;SDS011;4939;52.00085300;4.17406100;2023-03-14T08:53:39;11.35;;;1.33;;
9799;SDS011;4939;52.00085300;4.17406100;2023-03-14T08:56:06;12.13;;;1.27;;
9799;SDS011;4939;52.00085300;4.17406100;2023-03-14T08:58:34;10.18;;;0.80;;
9799;SDS011;4939;52.00085300;4.17406100;2023-03-14T09:01:02;13.02;;;1.30;;
9799;SDS011;4939;52.00085300;4.17406100;2023-03-14T09:03:32;12.30;;;1.55;;
9799;SDS011;4939;52.00085300;4.17406100;2023-03-14T09:06:01;12.98;;;1.40;;
9799;SDS011;4939;52.00085300;4.17406100;2023-03-14T09:08:31;10.30;;;0.98;;
9799;SDS011;4939;52.00085300;4.17406100;2023-03-14T09:10:58;16.92;;;1.63;;
9799;SDS011;4939;52.00085300;4.17406100;2023-03-14T09:13:24;13.73;;;1.52;;
9799;SDS011;4939;52.00085300;4.17406100;2023-03-14T09:15:50;8.50;;;1.10;;
9799;SDS011;4939;52.00085300;4.17406100;2023-03-14T09:18:16;11.07;;;1.80;;
9799;SDS011;4939;52.00085300;4.17406100;2023-03-14T09:20:42;11.95;;;2.15;;
9799;SDS011;4939;52.00085300;4.17406100;2023-03-14T09:23:08;12.32;;;1.58;;
9799;SDS011;4939;52.00085300;4.17406100;2023-03-14T09:25:33;17.50;;;1.58;;
9799;SDS011;4939;52.00085300;4.17406100;2023-03-14T09:27:59;8.98;;;1.50;;
9799;SDS011;4939;52.00085300;4.17406100;2023-03-14T09:30:24;7.95;;;1.10;;
9799;SDS011;4939;52.00085300;4.17406100;2023-03-14T09:32:50;15.05;;;2.08;;
9799;SDS011;4939;52.00085300;4.17406100;2023-03-14T09:35:16;15.10;;;1.40;;
9799;SDS011;4939;52.00085300;4.17406100;2023-03-14T09:37:41;9.02;;;1.00;;
9799;SDS011;4939;52.00085300;4.17406100;2023-03-14T09:40:09;15.35;;;1.33;;
9799;SDS011;4939;52.00085300;4.17406100;2023-03-14T09:42:41;15.02;;;2.00;;
9799;SDS011;4939;52.00085300;4.17406100;2023-03-14T09:45:10;20.88;;;2.25;;
9799;SDS011;4939;52.00085300;4.17406100;2023-03-14T09:47:56;17.95;;;1.63;;
9799;SDS011;4939;52.00085300;4.17406100;2023-03-14T09:50:23;17.17;;;1.65;;
9799;SDS011;4939;52.00085300;4.17406100;2023-03-14T09:52:59;14.95;;;1.98;;
9799;SDS011;4939;52.00085300;4.17406100;2023-03-14T09:55:28;16.98;;;2.13;;
9799;SDS011;4939;52.00085300;4.17406100;2023-03-14T09:57:56;20.10;;;1.85;;
9799;SDS011;4939;52.00085300;4.17406100;2023-03-14T10:00:26;15.50;;;2.33;;
9799;SDS011;4939;52.00085300;4.17406100;2023-03-14T10:03:05;23.63;;;2.38;;
9799;SDS011;4939;52.00085300;4.17406100;2023-03-14T10:05:39;25.95;;;1.77;;
9799;SDS011;4939;52.00085300;4.17406100;2023-03-14T10:08:05;14.25;;;1.33;;
9799;SDS011;4939;52.00085300;4.17406100;2023-03-14T10:10:31;13.82;;;1.50;;
9799;SDS011;4939;52.00085300;4.17406100;2023-03-14T10:12:58;16.30;;;2.30;;
9799;SDS011;4939;52.00085300;4.17406100;2023-03-14T10:15:33;16.50;;;1.77;;
9799;SDS011;4939;52.00085300;4.17406100;2023-03-14T10:18:00;16.05;;;1.98;;
9799;SDS011;4939;52.00085300;4.17406100;2023-03-14T10:25:29;16.13;;;1.70;;
9799;SDS011;4939;52.00085300;4.17406100;2023-03-14T10:27:56;16.88;;;2.17;;
9799;SDS011;4939;52.00085300;4.17406100;2023-03-14T10:30:27;16.00;;;1.83;;
9799;SDS011;4939;52.00085300;4.17406100;2023-03-14T10:33:20;15.20;;;1.70;;
9799;SDS011;4939;52.00085300;4.17406100;2023-03-14T10:35:46;22.95;;;2.00;;
9799;SDS011;4939;52.00085300;4.17406100;2023-03-14T10:38:22;21.50;;;2.10;;
9799;SDS011;4939;52.00085300;4.17406100;2023-03-14T10:40:51;15.27;;;1.15;;
9799;SDS011;4939;52.00085300;4.17406100;2023-03-14T10:43:30;18.63;;;2.17;;
9799;SDS011;4939;52.00085300;4.17406100;2023-03-14T10:46:09;15.07;;;2.30;;
9799;SDS011;4939;52.00085300;4.17406100;2023-03-14T10:48:42;12.02;;;1.58;;
9799;SDS011;4939;52.00085300;4.17406100;2023-03-14T10:53:56;15.90;;;1.10;;
9799;SDS011;4939;52.00085300;4.17406100;2023-03-14T10:56:24;7.30;;;1.30;;
9799;SDS011;4939;52.00085300;4.17406100;2023-03-14T10:58:57;11.63;;;1.42;;
9799;SDS011;4939;52.00085300;4.17406100;2023-03-14T11:01:26;18.67;;;1.80;;
9799;SDS011;4939;52.00085300;4.17406100;2023-03-14T11:07:06;11.27;;;1.85;;
9799;SDS011;4939;52.00085300;4.17406100;2023-03-14T11:09:38;9.75;;;1.15;;
9799;SDS011;4939;52.00085300;4.17406100;2023-03-14T11:12:42;16.20;;;2.05;;
9799;SDS011;4939;52.00085300;4.17406100;2023-03-14T11:15:41;13.38;;;1.27;;
9799;SDS011;4939;52.00085300;4.17406100;2023-03-14T11:26:57;7.45;;;1.00;;
9799;SDS011;4939;52.00085300;4.17406100;2023-03-14T11:32:13;13.05;;;1.35;;
9799;SDS011;4939;52.00085300;4.17406100;2023-03-14T11:34:54;8.50;;;1.10;;
9799;SDS011;4939;52.00085300;4.17406100;2023-03-14T11:40:04;8.68;;;1.52;;
9799;SDS011;4939;52.00085300;4.17406100;2023-03-14T11:42:45;9.50;;;1.30;;
9799;SDS011;4939;52.00085300;4.17406100;2023-03-14T11:45:20;11.02;;;1.23;;
9799;SDS011;4939;52.00085300;4.17406100;2023-03-14T11:47:53;10.85;;;1.77;;
9799;SDS011;4939;52.00085300;4.17406100;2023-03-14T11:50:30;13.07;;;1.30;;
9799;SDS011;4939;52.00085300;4.17406100;2023-03-14T11:52:58;10.77;;;1.13;;
9799;SDS011;4939;52.00085300;4.17406100;2023-03-14T11:55:34;6.45;;;1.15;;
9799;SDS011;4939;52.00085300;4.17406100;2023-03-14T11:58:03;13.40;;;1.13;;
9799;SDS011;4939;52.00085300;4.17406100;2023-03-14T12:00:38;11.65;;;1.38;;
9799;SDS011;4939;52.00085300;4.17406100;2023-03-14T12:08:43;6.32;;;1.10;;
9799;SDS011;4939;52.00085300;4.17406100;2023-03-14T12:13:57;10.55;;;1.00;;
9799;SDS011;4939;52.00085300;4.17406100;2023-03-14T12:18:48;10.93;;;0.85;;
9799;SDS011;4939;52.00085300;4.17406100;2023-03-14T12:21:18;4.15;;;1.40;;
9799;SDS011;4939;52.00085300;4.17406100;2023-03-14T12:26:19;4.50;;;0.90;;
9799;SDS011;4939;52.00085300;4.17406100;2023-03-14T12:28:50;5.80;;;0.85;;
9799;SDS011;4939;52.00085300;4.17406100;2023-03-14T12:44:40;5.63;;;0.68;;
9799;SDS011;4939;52.00085300;4.17406100;2023-03-14T12:50:00;5.20;;;0.80;;
9799;SDS011;4939;52.00085300;4.17406100;2023-03-14T12:52:39;5.65;;;0.90;;
9799;SDS011;4939;52.00085300;4.17406100;2023-03-14T12:55:33;6.78;;;0.90;;
9799;SDS011;4939;52.00085300;4.17406100;2023-03-14T12:58:11;7.63;;;0.77;;
9799;SDS011;4939;52.00085300;4.17406100;2023-03-14T13:00:44;8.68;;;1.00;;
9799;SDS011;4939;52.00085300;4.17406100;2023-03-14T13:06:00;7.35;;;0.85;;
9799;SDS011;4939;52.00085300;4.17406100;2023-03-14T13:08:46;6.85;;;0.80;;
9799;SDS011;4939;52.00085300;4.17406100;2023-03-14T13:11:16;5.60;;;0.88;;
9799;SDS011;4939;52.00085300;4.17406100;2023-03-14T13:13:48;10.57;;;1.10;;
9799;SDS011;4939;52.00085300;4.17406100;2023-03-14T13:16:18;6.45;;;0.63;;
9799;SDS011;4939;52.00085300;4.17406100;2023-03-14T13:18:46;7.93;;;0.90;;
9799;SDS011;4939;52.00085300;4.17406100;2023-03-14T13:21:17;11.60;;;1.33;;
9799;SDS011;4939;52.00085300;4.17406100;2023-03-14T13:24:02;13.02;;;0.98;;
9799;SDS011;4939;52.00085300;4.17406100;2023-03-14T13:26:35;8.35;;;1.10;;
9799;SDS011;4939;52.00085300;4.17406100;2023-03-14T13:29:11;6.47;;;1.20;;
9799;SDS011;4939;52.00085300;4.17406100;2023-03-14T13:31:52;10.10;;;1.00;;
9799;SDS011;4939;52.00085300;4.17406100;2023-03-14T13:34:19;9.80;;;1.00;;
9799;SDS011;4939;52.00085300;4.17406100;2023-03-14T13:36:45;4.72;;;0.73;;
9799;SDS011;4939;52.00085300;4.17406100;2023-03-14T13:39:16;11.18;;;0.98;;
9799;SDS011;4939;52.00085300;4.17406100;2023-03-14T13:41:43;12.05;;;1.30;;
9799;SDS011;4939;52.00085300;4.17406100;2023-03-14T13:44:53;7.63;;;0.90;;
9799;SDS011;4939;52.00085300;4.17406100;2023-03-14T13:47:04;5.30;;;0.75;;
9799;SDS011;4939;52.00085300;4.17406100;2023-03-14T13:49:35;4.40;;;0.88;;
9799;SDS011;4939;52.00085300;4.17406100;2023-03-14T13:52:02;5.13;;;0.80;;
9799;SDS011;4939;52.00085300;4.17406100;2023-03-14T13:54:29;4.90;;;0.75;;
9799;SDS011;4939;52.00085300;4.17406100;2023-03-14T13:57:00;7.43;;;0.80;;
9799;SDS011;4939;52.00085300;4.17406100;2023-03-14T13:59:27;12.20;;;0.88;;
9799;SDS011;4939;52.00085300;4.17406100;2023-03-14T14:01:55;8.13;;;1.10;;
9799;SDS011;4939;52.00085300;4.17406100;2023-03-14T14:04:24;6.30;;;0.95;;
9799;SDS011;4939;52.00085300;4.17406100;2023-03-14T14:07:00;10.68;;;1.00;;
9799;SDS011;4939;52.00085300;4.17406100;2023-03-14T14:09:39;9.20;;;1.02;;
9799;SDS011;4939;52.00085300;4.17406100;2023-03-14T14:12:15;9.95;;;0.90;;
9799;SDS011;4939;52.00085300;4.17406100;2023-03-14T14:17:45;8.23;;;0.90;;
9799;SDS011;4939;52.00085300;4.17406100;2023-03-14T14:22:56;6.95;;;1.75;;
9799;SDS011;4939;52.00085300;4.17406100;2023-03-14T14:25:23;3.53;;;0.75;;
9799;SDS011;4939;52.00085300;4.17406100;2023-03-14T14:27:50;9.63;;;1.38;;
9799;SDS011;4939;52.00085300;4.17406100;2023-03-14T14:32:49;2.92;;;0.63;;
9799;SDS011;4939;52.00085300;4.17406100;2023-03-14T14:35:26;3.75;;;0.55;;